createdAt,value
2019-02-06T00:01:32.028Z,4.10
2019-02-06T00:07:36.425Z,4.20
2019-02-06T00:13:40.924Z,4.40
2019-02-06T00:19:47.447Z,5.00
2019-02-06T00:25:51.853Z,5.60
2019-02-06T00:31:57.665Z,4.70
2019-02-06T00:38:04.978Z,4.30
2019-02-06T00:44:07.919Z,4.50
2019-02-06T00:50:13.372Z,4.30
2019-02-06T00:56:17.661Z,4.40
2019-02-06T01:02:22.223Z,4.20
2019-02-06T01:08:26.427Z,4.50
2019-02-06T01:14:30.805Z,4.60
2019-02-06T01:20:35.271Z,4.60
2019-02-06T01:26:39.549Z,4.10
2019-02-06T01:32:43.997Z,4.40
2019-02-06T01:38:48.634Z,4.30
2019-02-06T01:44:52.850Z,4.40
2019-02-06T01:50:57.197Z,4.40
2019-02-06T01:57:01.494Z,4.30
2019-02-06T02:03:06.126Z,4.30
2019-02-06T02:09:19.769Z,4.30
2019-02-06T02:15:24.050Z,4.30
2019-02-06T02:21:28.862Z,4.50
2019-02-06T02:27:33.158Z,4.70
2019-02-06T02:33:37.447Z,5.30
2019-02-06T02:39:41.995Z,5.00
2019-02-06T02:45:46.267Z,5.10
2019-02-06T02:51:50.634Z,5.80
2019-02-06T02:57:54.943Z,4.60
2019-02-06T03:04:10.045Z,4.60
2019-02-06T03:10:14.421Z,4.80
2019-02-06T03:16:18.692Z,5.00
2019-02-06T03:22:23.328Z,5.60
2019-02-06T03:28:27.586Z,5.60
2019-02-06T03:34:31.895Z,6.20
2019-02-06T03:40:36.102Z,6.00
2019-02-06T03:46:40.411Z,6.20
2019-02-06T03:52:44.629Z,5.80
2019-02-06T03:58:48.948Z,6.50
2019-02-06T04:04:53.177Z,6.30
2019-02-06T04:10:57.443Z,5.00
2019-02-06T04:17:01.714Z,5.50
2019-02-06T04:23:06.027Z,5.00
2019-02-06T04:29:10.765Z,5.30
2019-02-06T04:35:15.582Z,5.40
2019-02-06T04:41:19.931Z,5.20
2019-02-06T04:47:24.226Z,6.00
2019-02-06T04:53:28.574Z,5.30
2019-02-06T04:59:32.866Z,5.70
2019-02-06T05:05:37.223Z,5.70
2019-02-06T05:11:43.195Z,5.50
2019-02-06T05:17:47.456Z,6.10
2019-02-06T05:23:51.870Z,6.60
2019-02-06T05:29:56.174Z,6.40
2019-02-06T05:36:00.744Z,6.80
2019-02-06T05:42:05.104Z,6.50
2019-02-06T05:48:09.323Z,5.90
2019-02-06T05:54:13.660Z,5.60
2019-02-06T06:00:22.600Z,5.90
2019-02-06T06:06:27.038Z,6.30
2019-02-06T06:12:31.323Z,6.00
2019-02-06T06:18:36.054Z,6.50
2019-02-06T06:24:43.323Z,6.40
2019-02-06T06:30:47.656Z,6.10
2019-02-06T06:36:51.939Z,6.10
2019-02-06T06:42:56.634Z,7.00
2019-02-06T06:49:00.877Z,6.20
2019-02-06T06:55:05.490Z,6.10
2019-02-06T07:01:10.954Z,7.40
2019-02-06T07:07:15.702Z,6.80
2019-02-06T07:13:20.062Z,6.90
2019-02-06T07:19:24.289Z,6.60
2019-02-06T07:25:28.911Z,6.90
2019-02-06T07:31:33.188Z,6.60
2019-02-06T07:37:37.605Z,7.20
2019-02-06T07:43:41.967Z,8.30
2019-02-06T07:49:46.292Z,7.00
2019-02-06T07:55:50.894Z,6.60
2019-02-06T08:01:55.192Z,6.80
2019-02-06T08:07:59.528Z,7.60
2019-02-06T08:14:03.902Z,7.10
2019-02-06T08:20:10.054Z,6.80
2019-02-06T08:26:14.374Z,7.10
2019-02-06T08:32:18.663Z,7.30
2019-02-06T08:38:22.920Z,6.90
2019-02-06T08:44:27.267Z,7.00
2019-02-06T08:50:31.466Z,6.70
2019-02-06T08:56:35.857Z,7.50
2019-02-06T09:02:40.220Z,7.10
2019-02-06T09:08:44.501Z,6.70
2019-02-06T09:14:49.074Z,7.40
2019-02-06T09:20:53.384Z,7.10
2019-02-06T09:26:57.708Z,7.40
2019-02-06T09:33:02.422Z,7.30
2019-02-06T09:39:11.570Z,7.40
2019-02-06T09:45:16.367Z,7.30
2019-02-06T09:51:20.594Z,7.70
2019-02-06T09:57:25.288Z,7.40
2019-02-06T10:03:29.575Z,6.90
2019-02-06T10:09:35.930Z,7.70
2019-02-06T10:15:40.597Z,7.50
2019-02-06T10:21:44.858Z,7.70
2019-02-06T10:27:49.173Z,7.40
2019-02-06T10:33:53.653Z,7.30
2019-02-06T10:39:58.688Z,7.50
2019-02-06T10:46:03.144Z,7.50
2019-02-06T10:52:07.460Z,7.90
2019-02-06T10:58:11.845Z,7.20
2019-02-06T11:04:16.185Z,8.10
2019-02-06T11:10:21.526Z,7.60
2019-02-06T11:16:26.022Z,7.40
2019-02-06T11:22:30.401Z,7.50
2019-02-06T11:28:34.714Z,7.30
2019-02-06T11:34:39.031Z,7.40
2019-02-06T11:40:43.414Z,7.60
2019-02-06T11:46:48.101Z,7.70
2019-02-06T11:52:52.565Z,7.60
2019-02-06T11:58:56.855Z,8.00
2019-02-06T12:05:01.539Z,8.20
2019-02-06T12:11:07.356Z,8.30
2019-02-06T12:17:11.581Z,8.50
2019-02-06T12:23:15.778Z,8.80
2019-02-06T12:29:20.541Z,8.10
2019-02-06T12:35:24.850Z,8.60
2019-02-06T12:41:29.207Z,8.60
2019-02-06T12:47:36.623Z,8.80
2019-02-06T12:53:40.948Z,8.20
2019-02-06T12:59:45.231Z,8.30
2019-02-06T13:05:49.606Z,8.50
2019-02-06T13:11:53.943Z,8.40
2019-02-06T13:17:58.676Z,8.00
2019-02-06T13:24:02.906Z,8.00
2019-02-06T13:30:10.654Z,8.30
2019-02-06T13:36:14.938Z,8.40
2019-02-06T13:42:19.309Z,8.80
2019-02-06T13:48:23.612Z,8.70
2019-02-06T13:54:28.001Z,8.20
2019-02-06T14:00:35.445Z,8.40
2019-02-06T14:06:39.807Z,9.00
2019-02-06T14:12:44.230Z,8.40
2019-02-06T14:18:48.543Z,8.30
2019-02-06T14:24:57.219Z,8.40
2019-02-06T14:31:33.920Z,8.60
2019-02-06T14:38:19.980Z,8.70
2019-02-06T14:45:18.805Z,8.50
2019-02-06T14:51:48.830Z,8.50
2019-02-06T14:58:26.646Z,8.60
2019-02-06T15:05:03.887Z,8.50
2019-02-06T15:12:13.349Z,8.50
2019-02-06T15:19:07.823Z,8.80
2019-02-06T15:25:57.432Z,8.70
2019-02-06T15:32:39.273Z,8.40
2019-02-06T15:39:45.711Z,8.50
2019-02-06T15:46:09.749Z,8.30
2019-02-06T15:52:54.716Z,8.40
2019-02-06T15:59:45.190Z,8.30
2019-02-06T16:06:37.783Z,8.50
2019-02-06T16:13:23.089Z,8.50
2019-02-06T16:20:07.474Z,8.20
2019-02-06T16:26:57.586Z,8.20
2019-02-06T16:33:45.018Z,8.30
2019-02-06T16:40:19.776Z,8.20
2019-02-06T16:46:52.972Z,8.20
2019-02-06T16:53:20.583Z,8.20
2019-02-06T16:59:51.792Z,8.20
2019-02-06T17:06:19.177Z,8.20
2019-02-06T17:13:01.703Z,8.30
2019-02-06T17:19:52.081Z,8.40
2019-02-06T17:26:32.586Z,8.50
2019-02-06T17:33:20.743Z,8.40
2019-02-06T17:39:52.886Z,8.70
2019-02-06T17:46:40.134Z,8.80
2019-02-06T17:53:09.391Z,8.80
2019-02-06T17:59:13.760Z,8.70
2019-02-06T18:05:18.200Z,9.00
2019-02-06T18:11:22.489Z,8.70
2019-02-06T18:17:27.022Z,8.70
2019-02-06T18:23:31.343Z,9.00
2019-02-06T18:29:35.612Z,8.90
2019-02-06T18:35:43.398Z,9.00
2019-02-06T18:41:48.071Z,8.90
2019-02-06T18:47:56.897Z,8.60
2019-02-06T18:54:01.221Z,8.50
2019-02-06T19:00:10.060Z,8.50
2019-02-06T19:06:14.633Z,8.50
2019-02-06T19:12:19.010Z,8.40
2019-02-06T19:18:23.394Z,8.30
2019-02-06T19:24:28.699Z,8.40
2019-02-06T19:30:34.867Z,8.40
2019-02-06T19:36:39.190Z,8.40
2019-02-06T19:42:43.486Z,8.30
2019-02-06T19:48:47.836Z,8.30
2019-02-06T19:54:52.161Z,8.30
2019-02-06T20:00:56.724Z,8.20
2019-02-06T20:07:01.077Z,8.30
2019-02-06T20:13:12.270Z,8.50
2019-02-06T20:19:11.834Z,8.30
2019-02-06T20:25:16.922Z,8.30
2019-02-06T20:31:21.360Z,8.30
2019-02-06T20:37:25.884Z,8.40
2019-02-06T20:43:30.174Z,8.30
2019-02-06T20:49:34.562Z,8.30
2019-02-06T20:55:38.929Z,8.40
2019-02-06T21:01:43.164Z,8.30
2019-02-06T21:07:47.662Z,8.30
2019-02-06T21:13:52.286Z,8.30
2019-02-06T21:19:56.677Z,8.60
2019-02-06T21:26:01.114Z,8.50
2019-02-06T21:32:05.540Z,8.40
2019-02-06T21:38:10.060Z,8.40
2019-02-06T21:44:14.366Z,9.10
2019-02-06T21:50:22.895Z,9.60
2019-02-06T21:56:27.381Z,10.20
2019-02-06T22:02:31.800Z,9.10
2019-02-06T22:08:36.063Z,10.30
2019-02-06T22:14:40.441Z,11.60
2019-02-06T22:20:44.969Z,11.80
2019-02-06T22:26:49.268Z,11.80
2019-02-06T22:32:53.767Z,12.40
2019-02-06T22:38:58.409Z,12.70
2019-02-06T22:45:02.945Z,13.00
2019-02-06T22:51:07.322Z,13.20
2019-02-06T22:57:11.751Z,12.50
2019-02-06T23:03:19.359Z,13.30
2019-02-06T23:09:23.709Z,13.20
2019-02-06T23:15:28.041Z,13.60
2019-02-06T23:21:32.643Z,13.20
2019-02-06T23:27:36.935Z,13.10
2019-02-06T23:33:43.031Z,13.60
2019-02-06T23:39:47.885Z,13.50
2019-02-06T23:45:52.201Z,13.80
2019-02-06T23:51:56.418Z,13.40
2019-02-06T23:58:00.714Z,13.90
